Time;durP1;ratioP1;P1;durP2;ratioP2;P2;SDS_P1;SDS_P2;PMS_P1;PMS_P2;Temp;Humidity;BMP_temperature;BMP_pressure;BME280_temperature;BME280_humidity;BME280_pressure;Samples;Min_cycle;Max_cycle;Signal;HPM_P1;HPM_P2
2022/01/13 00:00:15;;;;;;;7.63;6.93;;;15.20;56.30;16.20;103235.00;;;;5029120;28;20182;-50
2022/01/13 00:02:41;;;;;;;7.13;6.53;;;15.20;56.80;16.20;103239.00;;;;5027135;28;20174;-47
2022/01/13 00:05:07;;;;;;;7.43;6.73;;;15.10;56.30;16.20;103245.00;;;;5027805;28;20205;-49
2022/01/13 00:07:35;;;;;;;7.67;6.97;;;15.10;56.40;16.20;103244.00;;;;5028662;28;20232;-51
2022/01/13 00:10:01;;;;;;;9.13;6.87;;;15.10;56.30;16.10;103246.00;;;;5028898;28;20254;-49
2022/01/13 00:12:32;;;;;;;7.67;7.00;;;15.00;56.00;16.10;103246.00;;;;5028426;28;20546;-49
2022/01/13 00:15:22;;;;;;;7.70;7.00;;;15.10;56.20;16.10;103255.00;;;;5048488;28;20189;-50
2022/01/13 00:22:51;;;;;;;7.70;6.90;;;14.90;56.00;16.10;103239.00;;;;5046191;28;20185;-50
2022/01/13 00:25:19;;;;;;;7.50;6.77;;;14.90;56.20;16.00;103263.00;;;;5047337;28;20213;-48
2022/01/13 00:27:52;;;;;;;7.60;6.90;;;14.90;56.40;16.00;103264.00;;;;5058727;28;20174;-50
2022/01/13 00:30:20;;;;;;;7.33;6.63;;;14.90;56.50;16.00;103238.00;;;;5060388;28;20174;-49
2022/01/13 00:32:46;;;;;;;7.63;6.93;;;14.90;56.40;16.00;103269.00;;;;5045996;28;20312;-49
2022/01/13 00:35:11;;;;;;;7.83;7.03;;;14.80;56.30;16.00;103272.00;;;;5047270;28;20202;-47
2022/01/13 00:37:37;;;;;;;7.03;6.43;;;14.80;56.30;16.00;103268.00;;;;5047146;28;20521;-48
2022/01/13 00:40:05;;;;;;;7.60;6.90;;;14.80;56.40;15.90;103269.00;;;;5047389;28;20242;-48
2022/01/13 00:42:32;;;;;;;7.60;6.90;;;14.80;56.40;15.90;103271.00;;;;5046788;28;20296;-49
2022/01/13 00:44:58;;;;;;;7.27;6.67;;;14.80;56.60;15.90;103283.00;;;;5046821;28;20804;-50
2022/01/13 00:47:23;;;;;;;7.50;6.87;;;14.70;56.30;15.90;103277.00;;;;5047452;28;20178;-49
2022/01/13 00:49:49;;;;;;;7.87;7.17;;;14.70;56.40;15.90;103274.00;;;;5047114;28;20174;-50
2022/01/13 00:52:15;;;;;;;7.20;6.60;;;14.70;56.40;15.90;103269.00;;;;5046813;28;20179;-49
2022/01/13 00:54:41;;;;;;;7.00;6.40;;;14.70;56.30;15.90;103272.00;;;;5047000;28;20182;-49
2022/01/13 00:57:07;;;;;;;7.10;6.50;;;14.70;56.40;15.90;103274.00;;;;5046972;28;20359;-49
2022/01/13 00:59:33;;;;;;;7.47;6.77;;;14.60;56.60;15.80;103268.00;;;;5046950;28;20270;-50
2022/01/13 01:01:59;;;;;;;7.53;6.73;;;14.60;56.90;15.80;103266.00;;;;5059931;28;20174;-49
2022/01/13 01:04:25;;;;;;;7.43;6.77;;;14.60;56.60;15.80;103261.00;;;;5062218;28;20174;-48
2022/01/13 01:06:51;;;;;;;7.63;6.87;;;14.60;56.60;15.80;103271.00;;;;5051027;28;20253;-48
2022/01/13 01:09:23;;;;;;;7.73;7.07;;;14.60;56.60;15.80;103273.00;;;;5051544;28;20682;-49
2022/01/13 01:11:51;;;;;;;7.70;7.00;;;14.50;56.70;15.80;103273.00;;;;5051178;28;20151;-50
2022/01/13 01:14:18;;;;;;;7.33;6.73;;;14.50;56.50;15.80;103274.00;;;;5049806;28;20178;-48
2022/01/13 01:16:43;;;;;;;7.40;6.70;;;14.50;56.50;15.70;103269.00;;;;5050713;28;20252;-49
2022/01/13 01:19:11;;;;;;;7.00;6.40;;;14.50;56.60;15.70;103279.00;;;;5049870;28;20679;-49
2022/01/13 01:29:25;;;;;;;7.10;6.50;;;14.40;56.80;15.60;103285.00;;;;5051221;28;20174;-50
2022/01/13 01:31:53;;;;;;;6.83;6.23;;;14.40;56.70;15.60;103293.00;;;;5051192;28;20235;-49
2022/01/13 01:37:18;;;;;;;7.40;6.70;;;14.40;57.10;15.50;103296.00;;;;5050997;28;20181;-49
2022/01/13 01:39:48;;;;;;;7.30;6.60;;;14.40;56.70;15.60;103301.00;;;;5050877;28;20674;-49
2022/01/13 01:42:15;;;;;;;6.90;6.30;;;14.30;57.00;15.50;103298.00;;;;5051989;28;20178;-49
2022/01/13 01:44:43;;;;;;;7.10;6.50;;;14.30;56.70;15.50;103293.00;;;;5050356;28;20228;-50
2022/01/13 01:47:11;;;;;;;7.33;6.63;;;14.30;57.00;15.50;103301.00;;;;5049152;28;20169;-49
2022/01/13 01:49:41;;;;;;;6.90;6.30;;;14.30;56.70;15.50;103293.00;;;;5052680;28;20181;-50
2022/01/13 01:52:09;;;;;;;7.20;6.60;;;14.30;56.70;15.50;103305.00;;;;5034040;28;20175;-50
2022/01/13 01:54:35;;;;;;;7.20;6.57;;;14.30;56.80;15.50;103301.00;;;;5034146;28;20174;-50
2022/01/13 01:57:00;;;;;;;6.30;5.80;;;14.30;56.90;15.50;103297.00;;;;5030464;28;20195;-50
2022/01/13 01:59:30;;;;;;;7.20;6.60;;;14.30;57.00;15.50;103297.00;;;;5031351;28;20166;-50
2022/01/13 02:01:56;;;;;;;6.97;6.33;;;14.30;57.00;15.50;103298.00;;;;5032987;28;20171;-49
2022/01/13 02:04:24;;;;;;;6.80;6.20;;;14.30;57.00;15.40;103283.00;;;;5032912;28;20159;-50
2022/01/13 02:06:50;;;;;;;6.70;6.10;;;14.30;57.10;15.40;103296.00;;;;5031036;28;20207;-50
2022/01/13 02:09:17;;;;;;;7.00;6.40;;;14.20;56.90;15.40;103280.00;;;;5030768;28;20250;-50
2022/01/13 02:11:49;;;;;;;6.50;6.00;;;14.20;56.90;15.40;103294.00;;;;5029798;28;20175;-49
2022/01/13 02:16:56;;;;;;;6.70;6.10;;;14.20;57.50;15.40;103284.00;;;;5034479;28;20612;-50
2022/01/13 02:19:26;;;;;;;6.80;6.20;;;14.20;58.00;15.30;103289.00;;;;5030237;28;20171;-47
2022/01/13 02:21:52;;;;;;;7.00;6.40;;;14.20;57.60;15.30;103283.00;;;;5028433;28;20167;-49
2022/01/13 02:24:18;;;;;;;7.00;6.40;;;14.20;57.70;15.30;103282.00;;;;5029737;28;20209;-50
2022/01/13 02:26:44;;;;;;;6.43;5.83;;;14.20;57.90;15.30;103276.00;;;;5029626;28;20199;-51
2022/01/13 02:29:09;;;;;;;6.10;5.60;;;14.20;57.60;15.30;103279.00;;;;5028268;28;20246;-49
2022/01/13 02:31:35;;;;;;;6.97;6.37;;;14.20;57.70;15.30;103272.00;;;;5029446;28;20163;-50
2022/01/13 02:34:01;;;;;;;6.57;5.97;;;14.10;57.50;15.30;103286.00;;;;5028818;28;20830;-49
2022/01/13 02:36:27;;;;;;;6.70;6.10;;;14.10;57.70;15.30;103281.00;;;;5029225;28;20206;-49
2022/01/13 02:38:56;;;;;;;6.73;6.13;;;14.10;57.70;15.30;103283.00;;;;5029503;28;20186;-51
2022/01/13 02:41:25;;;;;;;6.87;6.27;;;14.10;57.70;15.30;103277.00;;;;5031151;28;20217;-49
2022/01/13 02:43:53;;;;;;;6.70;6.10;;;14.10;57.70;15.20;103281.00;;;;5029891;28;20207;-49
2022/01/13 02:46:32;;;;;;;6.93;6.20;;;14.10;57.90;15.20;103272.00;;;;5029401;28;20194;-50
2022/01/13 02:48:59;;;;;;;6.77;6.17;;;14.10;58.00;15.20;103265.00;;;;5043912;28;20173;-48
2022/01/13 02:51:25;;;;;;;6.57;5.97;;;14.10;57.60;15.20;103271.00;;;;5035733;28;20167;-48
2022/01/13 02:53:51;;;;;;;6.73;6.13;;;14.00;57.70;14.90;103269.00;;;;5029029;28;20164;-47
2022/01/13 02:56:17;;;;;;;6.57;5.97;;;14.00;57.80;14.90;103269.00;;;;5028818;28;20195;-49
2022/01/13 02:58:43;;;;;;;6.50;5.90;;;14.00;57.80;15.20;103270.00;;;;5029065;28;20187;-48
2022/01/13 03:01:08;;;;;;;6.60;6.00;;;14.00;57.60;15.20;103269.00;;;;5029022;28;20206;-50
2022/01/13 03:03:35;;;;;;;6.70;6.10;;;14.00;57.80;15.20;103252.00;;;;5029338;28;20527;-48
2022/01/13 03:06:09;;;;;;;6.17;5.67;;;14.00;57.60;15.20;103253.00;;;;5028679;28;20207;-49
2022/01/13 03:08:36;;;;;;;6.33;5.73;;;14.00;57.50;15.20;103248.00;;;;5028861;28;20162;-48
2022/01/13 03:11:02;;;;;;;6.80;6.20;;;13.90;57.50;15.10;103247.00;;;;5028576;28;20680;-49
2022/01/13 03:13:29;;;;;;;5.87;5.37;;;13.90;57.60;15.10;103249.00;;;;5028846;28;20168;-49
2022/01/13 03:15:55;;;;;;;6.73;6.13;;;13.90;57.80;15.10;103243.00;;;;5028572;28;20344;-49
2022/01/13 03:18:20;;;;;;;6.43;5.83;;;13.90;57.60;15.10;103252.00;;;;5028958;28;20183;-50
2022/01/13 03:20:46;;;;;;;6.90;6.30;;;13.90;57.60;15.10;103250.00;;;;5031852;28;20649;-49
2022/01/13 03:23:16;;;;;;;7.00;6.40;;;13.90;57.90;15.10;103247.00;;;;5041841;28;20195;-49
2022/01/13 03:25:44;;;;;;;6.80;6.20;;;13.90;57.70;15.10;103252.00;;;;5033807;28;20207;-49
2022/01/13 03:28:15;;;;;;;6.30;5.73;;;13.90;57.70;15.10;103236.00;;;;5028813;28;20931;-48
2022/01/13 03:30:42;;;;;;;6.53;5.93;;;13.90;57.80;15.10;103247.00;;;;5029123;28;20246;-49
2022/01/13 03:33:08;;;;;;;6.80;6.20;;;13.90;57.60;15.00;103268.00;;;;5055186;28;20177;-49
2022/01/13 03:35:36;;;;;;;6.53;5.93;;;13.90;57.40;15.00;103257.00;;;;5054255;28;20258;-51
2022/01/13 03:38:02;;;;;;;6.23;5.67;;;13.90;57.50;15.00;103270.00;;;;5029848;28;20277;-48
2022/01/13 03:40:28;;;;;;;6.40;5.80;;;13.90;57.50;15.00;103277.00;;;;5027072;28;20262;-48
2022/01/13 03:42:53;;;;;;;6.70;6.10;;;13.90;57.40;15.00;103271.00;;;;5029035;28;20175;-48
2022/01/13 03:45:21;;;;;;;7.13;6.43;;;13.90;57.40;15.00;103268.00;;;;5027778;28;20226;-49
2022/01/13 03:47:46;;;;;;;6.93;6.27;;;13.90;57.50;15.00;103261.00;;;;5028544;28;20175;-50
2022/01/13 03:50:13;;;;;;;7.07;6.47;;;13.90;57.40;15.00;103261.00;;;;5028042;28;20229;-49
2022/01/13 03:52:50;;;;;;;7.20;6.50;;;13.80;57.40;15.00;103256.00;;;;5028168;28;20179;-49
2022/01/13 03:55:35;;;;;;;6.67;6.07;;;13.80;57.30;15.00;103258.00;;;;5027776;28;20680;-49
2022/01/13 03:58:31;;;;;;;6.80;6.20;;;13.80;57.40;14.90;103261.00;;;;5028492;28;20203;-49
2022/01/13 04:01:37;;;;;;;7.23;6.50;;;13.80;57.40;14.90;103251.00;;;;5028209;28;20208;-51
2022/01/13 04:04:03;;;;;;;6.77;6.10;;;13.80;57.40;14.90;103261.00;;;;5028042;28;20186;-50
2022/01/13 04:06:45;;;;;;;6.83;6.23;;;13.70;57.40;14.90;103265.00;;;;5027178;28;20207;-51
2022/01/13 04:09:33;;;;;;;6.70;6.10;;;13.70;57.30;14.90;103257.00;;;;5029477;28;20228;-50
2022/01/13 04:12:03;;;;;;;7.10;6.47;;;13.70;57.60;14.80;103257.00;;;;5027468;28;20155;-47
2022/01/13 04:14:37;;;;;;;7.40;6.70;;;13.80;57.40;14.80;103260.00;;;;5027452;28;20574;-49
2022/01/13 04:17:03;;;;;;;6.80;6.20;;;13.70;57.30;14.80;103274.00;;;;5028266;28;20190;-50
2022/01/13 04:19:29;;;;;;;7.07;6.47;;;13.70;57.20;14.80;103263.00;;;;5028305;28;20254;-49
2022/01/13 04:21:55;;;;;;;7.20;6.50;;;13.70;57.30;14.80;103254.00;;;;5027442;28;20175;-49
2022/01/13 04:24:20;;;;;;;7.00;6.40;;;13.70;57.80;14.80;103257.00;;;;5027730;28;20167;-50
2022/01/13 04:26:46;;;;;;;7.10;6.40;;;13.70;57.20;14.80;103261.00;;;;5026962;28;20207;-49
2022/01/13 04:31:39;;;;;;;13.83;6.93;;;13.70;58.10;14.80;103265.00;;;;5027141;28;20167;-49
2022/01/13 04:34:04;;;;;;;7.17;6.57;;;13.70;57.80;14.80;103260.00;;;;5030080;28;20238;-52
2022/01/13 04:36:30;;;;;;;7.40;6.53;;;13.70;57.70;14.80;103238.00;;;;5034991;28;20237;-48
2022/01/13 04:38:56;;;;;;;7.60;6.80;;;13.70;57.90;14.70;103249.00;;;;5026122;28;20179;-51
2022/01/13 04:41:36;;;;;;;7.07;6.47;;;13.70;57.80;14.70;103237.00;;;;5026967;28;20724;-49
2022/01/13 04:44:17;;;;;;;7.83;6.60;;;13.70;57.90;14.70;103246.00;;;;5027450;28;20240;-48
2022/01/13 04:46:43;;;;;;;8.27;6.93;;;13.70;57.70;14.70;103233.00;;;;5026800;28;20245;-49
2022/01/13 04:49:08;;;;;;;6.93;6.33;;;13.70;57.70;14.70;103164.00;;;;5027269;28;20178;-51
2022/01/13 04:51:35;;;;;;;8.10;6.53;;;13.70;57.90;14.70;103233.00;;;;5026874;28;20191;-49
2022/01/13 04:54:01;;;;;;;7.37;6.57;;;13.70;57.70;14.70;103232.00;;;;5027166;28;20166;-49
2022/01/13 04:56:30;;;;;;;9.33;6.73;;;13.60;57.50;14.60;103231.00;;;;5027189;28;20214;-49
2022/01/13 04:58:57;;;;;;;8.20;7.00;;;13.70;57.30;14.60;103229.00;;;;5027127;28;20179;-49
2022/01/13 05:01:23;;;;;;;8.10;6.83;;;13.60;57.50;14.60;103230.00;;;;5026991;28;20595;-49
2022/01/13 05:03:49;;;;;;;8.30;7.10;;;13.60;57.60;14.60;103225.00;;;;5027569;28;20217;-50
2022/01/13 05:06:18;;;;;;;7.50;6.80;;;13.60;57.60;14.60;103226.00;;;;5027156;28;20207;-49
2022/01/13 05:08:47;;;;;;;7.93;6.90;;;13.60;57.60;14.60;103228.00;;;;5039406;28;20208;-49
2022/01/13 05:11:13;;;;;;;11.03;7.27;;;13.60;57.80;14.60;103232.00;;;;5036683;28;20900;-49
2022/01/13 05:13:39;;;;;;;8.27;7.40;;;13.60;57.70;14.60;103226.00;;;;5026874;28;20618;-50
2022/01/13 05:16:06;;;;;;;16.63;7.60;;;13.60;57.80;14.60;103240.00;;;;5026747;28;20213;-48
2022/01/13 05:18:47;;;;;;;11.73;7.37;;;13.60;57.80;14.50;103234.00;;;;5026592;28;20179;-50
2022/01/13 05:21:22;;;;;;;8.63;7.40;;;13.50;57.50;14.50;103246.00;;;;5026585;28;20242;-50
2022/01/13 05:23:49;;;;;;;10.03;7.23;;;13.50;57.80;14.50;103230.00;;;;5025343;28;20181;-50
2022/01/13 05:26:15;;;;;;;11.23;7.37;;;13.50;57.70;14.50;103228.00;;;;5026716;28;20268;-50
2022/01/13 05:28:41;;;;;;;11.93;7.43;;;13.50;57.60;14.50;103242.00;;;;5026638;28;20698;-50
2022/01/13 05:31:07;;;;;;;10.27;7.80;;;13.50;57.80;14.50;103230.00;;;;5026143;28;20744;-50
2022/01/13 05:33:33;;;;;;;9.87;7.90;;;13.50;57.70;14.50;103235.00;;;;5026291;28;20170;-51
2022/01/13 05:36:00;;;;;;;8.23;7.20;;;13.50;57.70;14.50;103226.00;;;;5025976;28;20205;-51
2022/01/13 05:38:26;;;;;;;12.37;7.87;;;13.50;57.60;14.50;103224.00;;;;5027167;28;20202;-50
2022/01/13 05:40:52;;;;;;;11.23;7.90;;;13.50;57.70;14.50;103216.00;;;;5026086;28;20206;-49
2022/01/13 05:43:18;;;;;;;9.23;7.43;;;13.50;57.70;14.50;103210.00;;;;5026543;28;20175;-51
2022/01/13 05:45:43;;;;;;;10.87;7.77;;;13.50;57.80;14.50;103208.00;;;;5026702;28;20223;-49
2022/01/13 05:48:09;;;;;;;10.50;7.63;;;13.50;57.80;14.40;103212.00;;;;5035785;28;20781;-50
2022/01/13 05:50:35;;;;;;;10.73;8.03;;;13.40;57.60;14.40;103207.00;;;;5043654;28;20178;-50
2022/01/13 05:53:00;;;;;;;9.13;7.70;;;13.40;57.60;14.40;103206.00;;;;5050247;28;20190;-50
2022/01/13 05:55:26;;;;;;;10.43;8.20;;;13.40;57.60;14.40;103208.00;;;;5050737;28;20194;-49
2022/01/13 05:57:52;;;;;;;10.13;8.13;;;13.40;57.60;14.40;103216.00;;;;5051381;28;20664;-49
2022/01/13 06:00:20;;;;;;;8.73;7.93;;;13.40;57.60;14.40;103222.00;;;;5050211;28;20166;-50
2022/01/13 06:02:46;;;;;;;8.90;7.97;;;13.40;57.80;14.40;103228.00;;;;5049207;28;20235;-49
2022/01/13 06:05:12;;;;;;;8.83;7.90;;;13.40;57.70;14.40;103222.00;;;;5049920;28;20210;-50
2022/01/13 06:07:38;;;;;;;8.63;7.80;;;13.40;57.60;14.40;103224.00;;;;5050061;28;20381;-49
2022/01/13 06:10:06;;;;;;;8.57;7.77;;;13.30;57.60;14.40;103218.00;;;;5049613;28;20273;-49
2022/01/13 06:12:37;;;;;;;8.67;7.87;;;13.30;57.60;14.40;103217.00;;;;5042704;28;20179;-50
2022/01/13 06:15:13;;;;;;;8.73;7.83;;;13.30;57.60;14.40;103218.00;;;;5030179;28;20151;-50
2022/01/13 06:17:40;;;;;;;8.70;7.30;;;13.30;57.60;14.40;103217.00;;;;5033008;28;20159;-49
2022/01/13 06:20:08;;;;;;;8.70;7.90;;;13.30;57.60;14.30;103203.00;;;;5032859;28;20197;-49
2022/01/13 06:22:34;;;;;;;8.67;7.80;;;13.30;57.60;14.30;103215.00;;;;5032679;28;20171;-50
2022/01/13 06:25:01;;;;;;;9.13;8.07;;;13.30;57.60;14.30;103213.00;;;;5029576;28;20182;-49
2022/01/13 06:27:27;;;;;;;8.27;7.43;;;13.30;57.60;14.30;103219.00;;;;5029116;28;20625;-49
2022/01/13 06:29:53;;;;;;;8.80;7.90;;;13.30;57.60;14.30;103218.00;;;;5030981;28;20175;-48
2022/01/13 06:32:19;;;;;;;8.73;7.90;;;13.30;57.80;14.30;103210.00;;;;5033305;28;20460;-49
2022/01/13 06:34:45;;;;;;;8.80;7.90;;;13.30;57.60;14.30;103203.00;;;;5031270;28;20171;-48
2022/01/13 06:37:10;;;;;;;9.30;7.93;;;13.30;57.60;14.20;103209.00;;;;5029740;28;20194;-49
2022/01/13 06:39:36;;;;;;;8.03;7.30;;;13.20;57.60;14.20;103212.00;;;;5029156;28;20802;-48
2022/01/13 06:42:02;;;;;;;8.93;8.03;;;13.30;57.60;14.20;103209.00;;;;5028949;28;20553;-49
2022/01/13 06:44:28;;;;;;;7.97;7.17;;;13.20;57.60;14.30;103203.00;;;;5030601;28;20186;-48
2022/01/13 06:46:53;;;;;;;8.83;7.93;;;13.20;57.80;14.20;103206.00;;;;5030199;28;20210;-48
2022/01/13 06:49:19;;;;;;;8.37;7.50;;;13.20;57.70;14.20;103218.00;;;;5029056;28;20182;-50
2022/01/13 06:51:45;;;;;;;9.33;8.43;;;13.20;57.50;14.20;103216.00;;;;5029130;28;20171;-48
2022/01/13 06:54:10;;;;;;;9.33;8.33;;;13.20;57.60;14.30;103225.00;;;;5028775;28;20178;-50
2022/01/13 06:56:36;;;;;;;8.83;7.93;;;13.20;57.30;14.30;103229.00;;;;5028443;28;20199;-47
2022/01/13 06:59:08;;;;;;;8.53;7.63;;;13.20;57.70;14.20;103221.00;;;;5028641;28;20243;-49
2022/01/13 07:01:34;;;;;;;9.07;8.17;;;13.20;57.50;14.20;103214.00;;;;5028639;28;20917;-49
2022/01/13 07:03:59;;;;;;;8.73;7.90;;;13.20;57.50;14.20;103211.00;;;;5027158;28;20178;-50
2022/01/13 07:06:25;;;;;;;9.20;8.30;;;13.20;57.60;14.20;103233.00;;;;5028695;28;20213;-50
2022/01/13 07:08:51;;;;;;;9.43;8.53;;;13.20;57.50;14.20;103220.00;;;;5028095;28;20167;-48
2022/01/13 07:11:17;;;;;;;8.77;7.87;;;13.10;57.40;14.20;103227.00;;;;5028348;28;20199;-49
2022/01/13 07:13:42;;;;;;;8.57;7.77;;;13.10;57.40;14.20;103223.00;;;;5026640;28;20175;-48
2022/01/13 07:16:08;;;;;;;8.60;7.80;;;13.10;57.40;14.20;103230.00;;;;5028549;28;20245;-49
2022/01/13 07:18:38;;;;;;;8.60;7.80;;;13.10;57.50;14.20;103220.00;;;;5028212;28;20719;-48
2022/01/13 07:21:09;;;;;;;9.73;8.83;;;13.10;57.40;14.10;103223.00;;;;5027464;28;20178;-49
2022/01/13 07:23:35;;;;;;;8.67;7.87;;;13.10;57.40;14.10;103228.00;;;;5028318;28;20306;-49
2022/01/13 07:26:02;;;;;;;8.23;7.43;;;13.10;57.40;14.10;103234.00;;;;5027892;28;20282;-49
2022/01/13 07:28:29;;;;;;;8.93;8.03;;;13.10;57.30;14.10;103240.00;;;;5028392;28;20171;-49
2022/01/13 07:30:56;;;;;;;9.13;8.23;;;13.10;57.40;14.10;103240.00;;;;5027012;28;20221;-50
2022/01/13 07:33:21;;;;;;;8.23;7.53;;;13.10;57.40;14.10;103235.00;;;;5028302;28;20175;-47
2022/01/13 07:35:47;;;;;;;8.37;7.57;;;13.10;57.40;14.10;103246.00;;;;5028072;28;20260;-49
2022/01/13 07:38:13;;;;;;;9.20;8.27;;;13.10;57.40;14.10;103224.00;;;;5028745;28;20179;-49
2022/01/13 07:40:38;;;;;;;8.77;7.97;;;13.10;57.30;14.10;103239.00;;;;5027408;28;20202;-49
2022/01/13 07:43:04;;;;;;;8.80;8.00;;;13.10;57.40;14.10;103243.00;;;;5028166;28;20187;-50
2022/01/13 07:45:30;;;;;;;9.10;8.20;;;13.10;57.40;14.10;103239.00;;;;5027952;28;20222;-49
2022/01/13 07:47:56;;;;;;;8.97;8.17;;;13.10;57.40;14.10;103256.00;;;;5028240;28;20788;-49
2022/01/13 07:50:21;;;;;;;9.37;8.47;;;13.00;57.30;14.10;103255.00;;;;5027933;28;20174;-50
2022/01/13 07:52:47;;;;;;;9.30;8.40;;;13.00;57.20;14.10;103257.00;;;;5027205;28;20211;-49
2022/01/13 07:55:13;;;;;;;8.40;7.60;;;13.00;57.10;14.10;103255.00;;;;5027519;28;20787;-50
2022/01/13 07:57:39;;;;;;;8.77;7.97;;;13.00;57.30;14.10;103247.00;;;;5026820;28;20198;-49
2022/01/13 08:00:07;;;;;;;7.93;7.23;;;13.00;57.10;14.10;103259.00;;;;5026806;28;20191;-48
2022/01/13 08:02:32;;;;;;;8.80;8.00;;;13.00;57.90;14.10;103266.00;;;;5027260;28;20155;-47
2022/01/13 08:04:58;;;;;;;8.80;8.00;;;13.00;57.30;14.10;103272.00;;;;5027410;28;20183;-48
2022/01/13 08:07:24;;;;;;;9.37;8.47;;;13.00;57.20;14.10;103277.00;;;;5027845;28;20186;-49
2022/01/13 08:09:49;;;;;;;9.27;8.37;;;13.00;57.30;14.10;103278.00;;;;5027959;28;20178;-49
2022/01/13 08:12:15;;;;;;;8.63;7.73;;;12.90;57.50;14.00;103277.00;;;;5028933;28;20170;-47
2022/01/13 08:14:41;;;;;;;8.33;7.63;;;12.90;57.20;14.00;103275.00;;;;5026386;28;20222;-48
2022/01/13 08:17:08;;;;;;;9.10;8.20;;;13.00;57.30;14.00;103270.00;;;;5027572;28;20199;-50
2022/01/13 08:19:46;;;;;;;9.03;8.13;;;12.90;57.10;14.00;103276.00;;;;5027501;28;20257;-48
2022/01/13 08:22:13;;;;;;;8.93;8.13;;;12.90;57.20;14.00;103284.00;;;;5027653;28;20167;-50
2022/01/13 08:24:38;;;;;;;8.97;8.17;;;12.90;57.30;14.00;103274.00;;;;5028265;28;20286;-50
2022/01/13 08:27:04;;;;;;;8.40;7.60;;;12.90;57.00;14.00;103281.00;;;;5026781;28;20314;-50
2022/01/13 08:29:30;;;;;;;8.83;8.03;;;12.90;57.20;14.00;103274.00;;;;5026377;28;20183;-47
2022/01/13 08:31:56;;;;;;;8.77;7.97;;;12.90;57.30;14.00;103282.00;;;;5027006;28;20190;-49
2022/01/13 08:34:21;;;;;;;8.93;7.83;;;12.90;57.00;13.90;103182.00;;;;5027379;28;20201;-50
2022/01/13 08:36:47;;;;;;;9.07;8.17;;;12.80;57.10;13.90;103272.00;;;;5027085;28;20194;-49
2022/01/13 08:39:13;;;;;;;8.73;7.93;;;12.90;57.20;13.90;103285.00;;;;5027345;28;20175;-50
2022/01/13 08:41:40;;;;;;;8.90;8.07;;;12.80;57.10;13.90;103283.00;;;;5026592;28;20175;-49
2022/01/13 08:44:05;;;;;;;8.97;8.17;;;12.80;57.10;13.90;103285.00;;;;5026418;28;20229;-49
2022/01/13 08:46:31;;;;;;;8.60;7.80;;;12.80;57.40;13.90;103283.00;;;;5026777;28;20704;-49
2022/01/13 08:48:57;;;;;;;8.57;7.87;;;12.80;57.10;13.90;103287.00;;;;5027338;28;20175;-50
2022/01/13 08:51:22;;;;;;;8.77;7.97;;;12.80;57.40;13.90;103285.00;;;;5026595;28;20175;-50
2022/01/13 08:53:48;;;;;;;8.93;8.13;;;12.80;57.10;13.90;103293.00;;;;5026511;28;20202;-48
2022/01/13 08:56:14;;;;;;;8.77;7.97;;;12.80;57.20;13.80;103290.00;;;;5026941;28;20285;-49
2022/01/13 08:58:40;;;;;;;8.70;7.87;;;12.80;57.30;13.80;103285.00;;;;5029548;28;20191;-48
2022/01/13 09:01:07;;;;;;;8.80;8.00;;;12.80;57.20;13.80;103279.00;;;;5030343;28;20182;-49
2022/01/13 09:03:36;;;;;;;8.33;7.63;;;12.80;57.20;13.80;103292.00;;;;5027075;28;20262;-49
2022/01/13 09:06:02;;;;;;;8.60;7.80;;;12.80;57.30;13.80;103292.00;;;;5026321;28;20207;-49
2022/01/13 09:08:28;;;;;;;8.70;7.80;;;12.80;57.00;13.80;103290.00;;;;5026063;28;20801;-49
2022/01/13 09:10:55;;;;;;;8.87;8.07;;;12.80;57.10;13.80;103289.00;;;;5028363;28;20174;-49
2022/01/13 09:13:20;;;;;;;9.13;8.23;;;12.80;57.10;13.80;103295.00;;;;5021963;28;20306;-49
2022/01/13 09:15:57;;;;;;;10.17;7.60;;;12.90;57.30;13.90;103293.00;;;;5027297;28;20194;-46
2022/01/13 09:18:33;;;;;;;10.80;7.57;;;13.10;57.10;14.00;103288.00;;;;5026981;28;20170;-50
2022/01/13 09:20:59;;;;;;;8.50;7.20;;;13.40;56.70;14.10;103291.00;;;;5028439;28;20696;-49
2022/01/13 09:23:24;;;;;;;8.10;7.30;;;13.70;56.20;14.20;103286.00;;;;5031521;28;20162;-48
2022/01/13 09:25:50;;;;;;;7.37;6.73;;;14.00;55.90;14.40;103294.00;;;;5032094;28;20316;-49
2022/01/13 09:28:16;;;;;;;7.43;6.73;;;14.40;55.40;14.50;103291.00;;;;5031012;28;20167;-50
2022/01/13 09:30:41;;;;;;;8.73;7.17;;;14.70;54.90;14.80;103309.00;;;;5031853;28;20637;-48
2022/01/13 09:33:07;;;;;;;7.17;6.47;;;15.00;54.60;15.00;103221.00;;;;5031406;28;20225;-49
2022/01/13 09:35:33;;;;;;;7.57;6.87;;;15.40;54.20;15.20;103305.00;;;;5031164;28;20198;-50
2022/01/13 09:38:00;;;;;;;7.43;6.73;;;15.60;53.80;15.40;103306.00;;;;5031372;28;20171;-51
2022/01/13 09:40:26;;;;;;;8.17;7.37;;;15.70;53.90;15.50;103302.00;;;;5031518;28;20759;-48
2022/01/13 09:42:52;;;;;;;8.53;6.87;;;15.90;53.80;15.70;103304.00;;;;5033569;28;20178;-54
2022/01/13 09:45:18;;;;;;;8.20;7.40;;;15.90;53.70;15.80;103307.00;;;;5032085;28;20819;-49
2022/01/13 09:47:46;;;;;;;8.73;7.30;;;16.00;53.80;15.90;103305.00;;;;5030394;28;20282;-50
2022/01/13 09:50:18;;;;;;;10.37;8.30;;;16.20;53.80;16.10;103305.00;;;;5039160;28;20189;-50
2022/01/13 09:52:44;;;;;;;14.97;7.90;;;16.20;54.40;16.20;103306.00;;;;5051560;28;20163;-51
2022/01/13 09:55:10;;;;;;;15.13;8.37;;;16.30;53.90;16.30;103304.00;;;;5051548;28;20269;-50
2022/01/13 09:57:41;;;;;;;10.93;8.50;;;16.30;54.00;16.30;103306.00;;;;5051316;28;20174;-49
2022/01/13 10:00:08;;;;;;;14.53;8.23;;;16.40;53.80;16.40;103303.00;;;;5050459;28;20162;-48
2022/01/13 10:02:33;;;;;;;11.93;8.03;;;16.50;53.80;16.50;103307.00;;;;5021548;28;20187;-49
2022/01/13 10:04:59;;;;;;;11.87;8.50;;;16.60;53.80;16.60;103313.00;;;;5012017;28;20163;-50
2022/01/13 10:07:42;;;;;;;11.87;8.30;;;16.60;53.60;16.70;103310.00;;;;4993980;28;20250;-50
2022/01/13 10:10:13;;;;;;;9.97;8.10;;;16.70;53.70;16.80;103316.00;;;;5011634;28;20286;-50
2022/01/13 10:12:41;;;;;;;10.83;7.87;;;16.70;53.80;16.80;103300.00;;;;5011880;28;20176;-49
2022/01/13 10:17:47;;;;;;;10.33;8.57;;;16.80;53.80;17.00;103294.00;;;;5012194;28;20267;-48
2022/01/13 10:20:14;;;;;;;9.40;7.77;;;16.80;53.80;17.00;103308.00;;;;5019261;28;20202;-51
2022/01/13 10:22:39;;;;;;;8.87;7.73;;;16.80;53.90;17.00;103303.00;;;;5035674;28;20178;-51
2022/01/13 10:25:05;;;;;;;10.37;8.23;;;16.90;54.00;17.10;103298.00;;;;5025192;28;20191;-49
2022/01/13 10:27:33;;;;;;;11.13;7.57;;;16.90;54.10;17.10;103296.00;;;;5012430;28;20582;-49
2022/01/13 10:30:22;;;;;;;9.10;7.77;;;16.90;54.10;17.10;103301.00;;;;5018321;28;20371;-49
2022/01/13 10:32:47;;;;;;;8.87;7.27;;;16.90;54.10;17.10;103303.00;;;;5012997;28;20170;-49
2022/01/13 10:35:16;;;;;;;9.57;8.10;;;16.90;54.20;17.10;103295.00;;;;5011062;28;20282;-50
2022/01/13 10:37:44;;;;;;;8.67;7.63;;;16.80;54.10;17.20;103297.00;;;;5011381;28;20700;-49
2022/01/13 10:40:15;;;;;;;8.80;7.90;;;16.80;54.10;17.20;103284.00;;;;5011243;28;20697;-50
2022/01/13 10:45:48;;;;;;;9.40;7.90;;;16.80;54.40;17.20;103283.00;;;;5010812;28;20700;-50
2022/01/13 10:48:21;;;;;;;8.90;8.00;;;16.80;54.40;17.20;103290.00;;;;5013159;28;20656;-50
2022/01/13 10:50:58;;;;;;;8.60;7.70;;;16.80;54.50;17.20;103289.00;;;;5012171;28;20186;-50
2022/01/13 10:53:31;;;;;;;8.50;7.70;;;16.70;54.50;17.20;103283.00;;;;5013232;28;20286;-50
2022/01/13 10:56:05;;;;;;;9.47;8.30;;;16.70;54.70;17.20;103274.00;;;;5011365;28;20254;-51
2022/01/13 10:58:47;;;;;;;9.03;8.13;;;16.70;54.80;17.20;103272.00;;;;5012649;28;20187;-50
2022/01/13 11:01:14;;;;;;;9.20;8.20;;;16.60;54.90;17.20;103274.00;;;;5011673;28;20170;-51
2022/01/13 11:03:42;;;;;;;9.23;7.97;;;16.60;55.00;17.10;103273.00;;;;5011290;28;20171;-50
2022/01/13 11:06:09;;;;;;;8.30;7.60;;;16.50;55.00;17.10;103273.00;;;;5009735;28;20251;-51
2022/01/13 11:08:44;;;;;;;9.63;8.23;;;16.50;55.10;17.10;103263.00;;;;5011213;28;20175;-49
2022/01/13 11:11:28;;;;;;;9.00;8.17;;;16.40;55.20;17.10;103270.00;;;;5010423;28;20539;-49
2022/01/13 11:13:57;;;;;;;9.13;8.23;;;16.40;55.30;17.10;103269.00;;;;5011253;28;20630;-49
2022/01/13 11:16:24;;;;;;;9.27;8.13;;;16.40;55.30;17.00;103262.00;;;;5010987;28;20200;-49